createdAt,value
2022-09-13T00:00:53.717Z,3.43
2022-09-13T00:03:22.329Z,3.10
2022-09-13T00:05:50.670Z,3.67
2022-09-13T00:08:19.498Z,3.27
2022-09-13T00:10:49.545Z,3.77
2022-09-13T00:13:18.425Z,3.00
2022-09-13T00:15:48.123Z,3.17
2022-09-13T00:18:16.799Z,3.43
2022-09-13T00:20:44.958Z,3.13
2022-09-13T00:23:14.039Z,3.07
2022-09-13T00:25:42.341Z,2.80
2022-09-13T00:28:12.038Z,2.70
2022-09-13T00:30:40.130Z,2.93
2022-09-13T00:33:08.198Z,3.07
2022-09-13T00:35:36.333Z,3.07
2022-09-13T00:38:05.467Z,2.83
2022-09-13T00:40:38.879Z,2.80
2022-09-13T00:43:15.390Z,3.00
2022-09-13T00:45:43.807Z,3.20
2022-09-13T00:48:21.652Z,3.07
2022-09-13T00:50:54.075Z,2.67
2022-09-13T00:53:27.870Z,2.90
2022-09-13T00:56:00.498Z,2.90
2022-09-13T00:58:33.753Z,2.40
2022-09-13T01:01:05.306Z,2.60
2022-09-13T01:03:36.846Z,2.70
2022-09-13T01:06:10.415Z,2.67
2022-09-13T01:08:41.838Z,2.50
2022-09-13T01:11:17.464Z,2.70
2022-09-13T01:13:48.208Z,2.70
2022-09-13T01:16:16.476Z,2.80
2022-09-13T01:18:44.825Z,2.50
2022-09-13T01:21:49.504Z,3.20
2022-09-13T01:24:49.583Z,2.53
2022-09-13T01:27:31.212Z,3.30
2022-09-13T01:30:07.326Z,3.00
2022-09-13T01:32:45.174Z,2.90
2022-09-13T01:35:23.067Z,3.20
2022-09-13T01:37:59.105Z,3.30
2022-09-13T01:40:44.690Z,3.20
2022-09-13T01:43:26.874Z,3.00
2022-09-13T01:46:05.254Z,2.97
2022-09-13T01:48:49.139Z,2.60
2022-09-13T01:51:25.438Z,2.57
2022-09-13T01:54:15.895Z,2.47
2022-09-13T01:56:52.731Z,3.07
2022-09-13T01:59:27.221Z,2.67
2022-09-13T02:02:02.719Z,2.40
2022-09-13T02:04:38.601Z,2.80
2022-09-13T02:07:12.107Z,2.40
2022-09-13T02:09:44.922Z,2.60
2022-09-13T02:12:23.307Z,2.50
2022-09-13T02:14:58.029Z,2.53
2022-09-13T02:17:32.493Z,3.00
2022-09-13T02:20:04.868Z,2.40
2022-09-13T02:22:36.592Z,2.50
2022-09-13T02:25:11.448Z,2.30
2022-09-13T02:27:42.357Z,2.37
2022-09-13T02:30:12.664Z,2.70
2022-09-13T02:32:46.011Z,2.43
2022-09-13T02:35:20.149Z,2.50
2022-09-13T02:37:53.671Z,2.33
2022-09-13T02:40:27.390Z,2.20
2022-09-13T02:43:02.361Z,2.77
2022-09-13T02:45:36.324Z,2.27
2022-09-13T02:48:12.794Z,2.30
2022-09-13T02:50:50.970Z,2.63
2022-09-13T02:53:29.244Z,2.53
2022-09-13T02:56:05.712Z,2.43
2022-09-13T02:58:41.269Z,2.70
2022-09-13T03:01:09.544Z,2.30
2022-09-13T03:03:39.276Z,2.30
2022-09-13T03:06:08.128Z,2.60
2022-09-13T03:08:37.726Z,2.33
2022-09-13T03:11:15.859Z,2.70
2022-09-13T03:14:17.634Z,2.30
2022-09-13T03:17:00.852Z,2.33
2022-09-13T03:19:44.433Z,2.80
2022-09-13T03:22:38.382Z,2.53
2022-09-13T03:25:15.043Z,2.40
2022-09-13T03:27:53.774Z,2.80
2022-09-13T03:30:22.007Z,2.70
2022-09-13T03:32:54.287Z,2.50
2022-09-13T03:35:32.116Z,2.60
2022-09-13T03:38:06.640Z,2.40
2022-09-13T03:40:43.822Z,2.50
2022-09-13T03:43:16.372Z,3.17
2022-09-13T03:45:49.950Z,2.30
2022-09-13T03:48:19.960Z,2.30
2022-09-13T03:50:50.814Z,2.40
2022-09-13T03:53:23.455Z,2.60
2022-09-13T03:55:52.149Z,2.80
2022-09-13T03:58:22.189Z,2.80
2022-09-13T04:00:50.419Z,2.80
2022-09-13T04:03:18.755Z,2.83
2022-09-13T04:05:47.707Z,2.70
2022-09-13T04:08:17.269Z,2.80
2022-09-13T04:10:45.391Z,2.73
2022-09-13T04:13:13.484Z,2.50
2022-09-13T04:15:41.625Z,2.87
2022-09-13T04:18:11.486Z,2.50
2022-09-13T04:20:39.604Z,2.50
2022-09-13T04:23:07.882Z,3.37
2022-09-13T04:25:40.636Z,2.20
2022-09-13T04:28:09.617Z,2.40
2022-09-13T04:30:42.036Z,3.00
2022-09-13T04:33:10.911Z,3.07
2022-09-13T04:35:39.721Z,4.17
2022-09-13T04:38:08.055Z,2.40
2022-09-13T04:40:39.217Z,2.70
2022-09-13T04:43:07.286Z,2.90
2022-09-13T04:45:35.691Z,3.10
2022-09-13T04:48:04.278Z,3.17
2022-09-13T04:50:32.352Z,3.10
2022-09-13T04:53:00.455Z,4.83
2022-09-13T04:55:28.888Z,3.87
2022-09-13T04:57:58.417Z,4.20
2022-09-13T05:00:27.287Z,3.03
2022-09-13T05:02:58.905Z,2.57
2022-09-13T05:05:28.932Z,2.93
2022-09-13T05:07:57.260Z,2.80
2022-09-13T05:10:25.596Z,2.43
2022-09-13T05:12:54.301Z,2.50
2022-09-13T05:15:23.852Z,2.77
2022-09-13T05:17:51.960Z,2.57
2022-09-13T05:20:20.094Z,2.40
2022-09-13T05:22:48.297Z,2.60
2022-09-13T05:25:16.618Z,3.10
2022-09-13T05:27:46.960Z,3.00
2022-09-13T05:30:15.260Z,3.10
2022-09-13T05:32:44.794Z,3.00
2022-09-13T05:35:13.831Z,3.40
2022-09-13T05:37:41.929Z,3.13
2022-09-13T05:40:12.227Z,3.37
2022-09-13T05:42:40.900Z,3.43
2022-09-13T05:45:10.527Z,3.20
2022-09-13T05:47:38.808Z,3.50
2022-09-13T05:50:15.430Z,3.17
2022-09-13T05:52:53.342Z,3.50
2022-09-13T05:55:23.051Z,3.60
2022-09-13T05:57:51.219Z,3.50
2022-09-13T06:00:19.574Z,3.60
2022-09-13T06:02:47.693Z,3.80
2022-09-13T06:05:17.352Z,3.47
2022-09-13T06:07:45.488Z,3.27
2022-09-13T06:10:13.694Z,3.50
2022-09-13T06:12:42.139Z,3.50
2022-09-13T06:15:12.824Z,3.53
2022-09-13T06:17:40.982Z,3.43
2022-09-13T06:20:10.762Z,3.27
2022-09-13T06:22:40.263Z,3.80
2022-09-13T06:25:09.510Z,4.00
2022-09-13T06:27:37.718Z,3.60
2022-09-13T06:30:08.926Z,3.37
2022-09-13T06:32:37.017Z,3.60
2022-09-13T06:35:05.474Z,3.83
2022-09-13T06:37:33.571Z,3.80
2022-09-13T06:40:04.644Z,3.50
2022-09-13T06:42:35.373Z,3.67
2022-09-13T06:45:03.762Z,3.67
2022-09-13T06:47:32.233Z,3.70
2022-09-13T06:50:01.037Z,3.30
2022-09-13T06:52:29.499Z,3.27
2022-09-13T06:54:57.643Z,4.00
2022-09-13T06:57:27.700Z,3.73
2022-09-13T06:59:55.819Z,3.50
2022-09-13T07:02:25.113Z,3.83
2022-09-13T07:04:53.357Z,3.70
2022-09-13T07:07:21.413Z,3.87
2022-09-13T07:09:49.556Z,4.07
2022-09-13T07:12:20.480Z,4.17
2022-09-13T07:14:50.337Z,4.10
2022-09-13T07:17:18.489Z,3.90
2022-09-13T07:19:46.557Z,3.70
2022-09-13T07:22:14.630Z,4.20
2022-09-13T07:24:42.883Z,4.00
2022-09-13T07:27:11.089Z,3.97
2022-09-13T07:29:39.224Z,3.87
2022-09-13T07:32:08.807Z,3.93
2022-09-13T07:34:36.969Z,3.93
2022-09-13T07:37:05.147Z,4.10
2022-09-13T07:39:33.270Z,3.70
2022-09-13T07:42:01.539Z,3.80
2022-09-13T07:44:29.645Z,4.57
2022-09-13T07:46:57.850Z,4.13
2022-09-13T07:49:27.455Z,4.30
2022-09-13T07:51:55.534Z,3.63
2022-09-13T07:54:23.638Z,3.60
2022-09-13T07:56:51.929Z,3.30
2022-09-13T07:59:20.824Z,4.27
2022-09-13T08:01:50.519Z,3.77
2022-09-13T08:04:21.464Z,3.50
2022-09-13T08:06:51.102Z,3.53
2022-09-13T08:09:19.390Z,3.83
2022-09-13T08:11:49.249Z,4.10
2022-09-13T08:14:19.319Z,3.90
2022-09-13T08:16:47.576Z,4.50
2022-09-13T08:19:18.250Z,4.20
2022-09-13T08:21:47.079Z,3.80
2022-09-13T08:24:18.490Z,3.83
2022-09-13T08:26:47.687Z,4.10
2022-09-13T08:29:17.007Z,3.83
2022-09-13T08:31:45.557Z,3.63
2022-09-13T08:34:14.818Z,4.20
2022-09-13T08:36:43.641Z,3.47
2022-09-13T08:39:13.925Z,4.30
2022-09-13T08:42:19.638Z,3.97
2022-09-13T08:44:50.282Z,3.80
2022-09-13T08:47:39.853Z,3.70
2022-09-13T08:50:15.624Z,3.90
2022-09-13T08:53:03.488Z,4.10
2022-09-13T08:55:43.288Z,4.10
2022-09-13T08:58:44.245Z,3.60
2022-09-13T09:01:22.807Z,3.90
2022-09-13T09:03:57.958Z,3.70
2022-09-13T09:06:26.570Z,3.83
2022-09-13T09:08:59.187Z,3.40
2022-09-13T09:11:46.301Z,3.77
2022-09-13T09:14:22.074Z,3.60
2022-09-13T09:16:54.034Z,3.40
2022-09-13T09:19:27.328Z,3.20
2022-09-13T09:21:55.458Z,5.00
2022-09-13T09:24:25.316Z,3.63
2022-09-13T09:26:55.175Z,3.93
2022-09-13T09:29:29.089Z,3.97
2022-09-13T09:32:11.033Z,4.20
2022-09-13T09:34:53.869Z,3.40
2022-09-13T09:37:25.157Z,3.43
2022-09-13T09:39:54.561Z,3.70
2022-09-13T09:42:26.371Z,3.60
2022-09-13T09:45:00.739Z,3.50
2022-09-13T09:47:33.069Z,3.60
2022-09-13T09:50:12.070Z,3.60
2022-09-13T09:52:45.856Z,3.43
2022-09-13T09:55:21.416Z,3.37
2022-09-13T09:57:54.692Z,3.90
2022-09-13T10:00:26.073Z,3.47
2022-09-13T10:02:58.480Z,3.60
2022-09-13T10:05:28.229Z,3.67
2022-09-13T10:07:59.421Z,4.33
2022-09-13T10:10:37.984Z,3.47
2022-09-13T10:13:09.420Z,3.97
2022-09-13T10:15:38.989Z,3.63
2022-09-13T10:18:43.914Z,4.10
2022-09-13T10:21:07.993Z,3.83
2022-09-13T10:23:37.243Z,4.00
2022-09-13T10:26:10.470Z,3.57
2022-09-13T10:28:46.122Z,3.40
2022-09-13T10:31:17.988Z,3.70
2022-09-13T10:33:54.427Z,4.20
2022-09-13T10:36:50.717Z,3.93
2022-09-13T10:39:19.098Z,4.90
2022-09-13T10:41:53.110Z,3.83
2022-09-13T10:44:41.467Z,4.10
2022-09-13T10:47:16.053Z,4.10
2022-09-13T10:49:49.019Z,3.87
2022-09-13T10:52:28.807Z,3.77
2022-09-13T10:54:57.396Z,4.10
2022-09-13T10:57:36.178Z,4.23
2022-09-13T11:00:09.125Z,4.00
2022-09-13T11:02:55.855Z,4.03
2022-09-13T11:05:27.974Z,3.97
2022-09-13T11:08:13.800Z,3.67
2022-09-13T11:10:53.649Z,4.00
2022-09-13T11:13:32.450Z,4.63
2022-09-13T11:16:14.231Z,4.10
2022-09-13T11:19:08.348Z,3.70
2022-09-13T11:21:49.045Z,3.50
2022-09-13T11:24:44.460Z,3.87
2022-09-13T11:27:21.606Z,4.47
2022-09-13T11:30:06.061Z,6.73
2022-09-13T11:32:48.115Z,6.90
2022-09-13T11:35:35.970Z,7.37
2022-09-13T11:38:14.199Z,5.63
2022-09-13T11:40:53.149Z,3.70
2022-09-13T11:43:42.184Z,3.80
2022-09-13T11:46:20.629Z,3.80
2022-09-13T11:49:29.013Z,4.47
2022-09-13T11:52:10.047Z,3.97
2022-09-13T11:54:55.356Z,3.90
2022-09-13T11:57:28.735Z,3.53
2022-09-13T12:00:01.641Z,4.00
2022-09-13T12:02:41.721Z,3.60
2022-09-13T12:05:22.516Z,3.93
2022-09-13T12:07:56.881Z,4.13
2022-09-13T12:10:29.143Z,3.80
2022-09-13T12:13:01.078Z,4.20
2022-09-13T12:15:38.015Z,3.70
2022-09-13T12:18:13.405Z,4.40
2022-09-13T12:20:45.627Z,3.90
2022-09-13T12:23:18.262Z,3.80
2022-09-13T12:25:52.679Z,3.60
2022-09-13T12:28:27.528Z,3.50
2022-09-13T12:31:01.690Z,3.57
2022-09-13T12:33:29.926Z,3.47
2022-09-13T12:36:23.531Z,4.03
2022-09-13T12:39:15.719Z,4.10
2022-09-13T12:42:12.361Z,3.70
2022-09-13T12:44:56.451Z,4.03
2022-09-13T12:47:50.761Z,3.77
2022-09-13T12:50:46.645Z,3.93
2022-09-13T12:53:36.138Z,4.00
2022-09-13T12:56:31.387Z,3.90
2022-09-13T12:59:29.103Z,4.53
2022-09-13T13:01:58.457Z,3.60
2022-09-13T13:04:30.592Z,3.53
2022-09-13T13:07:01.925Z,3.80
2022-09-13T13:09:41.107Z,3.90
2022-09-13T13:12:11.952Z,3.87
2022-09-13T13:14:53.854Z,4.20
2022-09-13T13:17:46.786Z,4.10
2022-09-13T13:20:48.233Z,4.10
2022-09-13T13:23:23.621Z,3.83
2022-09-13T13:26:36.727Z,4.30
2022-09-13T13:29:19.076Z,4.63
2022-09-13T13:32:04.127Z,4.10
2022-09-13T13:34:44.334Z,4.50
2022-09-13T13:37:38.197Z,3.63
2022-09-13T13:40:25.937Z,4.43
2022-09-13T13:43:31.686Z,4.03
2022-09-13T13:46:26.711Z,4.20
2022-09-13T13:48:55.161Z,4.00
2022-09-13T13:51:25.933Z,4.10
2022-09-13T13:54:01.708Z,3.90
2022-09-13T13:56:49.208Z,3.93
2022-09-13T13:59:32.113Z,4.10
2022-09-13T14:02:02.799Z,3.60
2022-09-13T14:05:08.238Z,3.90
2022-09-13T14:08:28.310Z,3.80
2022-09-13T14:11:03.225Z,3.77
2022-09-13T14:13:56.831Z,3.80
2022-09-13T14:16:39.305Z,3.60
2022-09-13T14:19:24.137Z,3.97
2022-09-13T14:22:16.997Z,3.80
2022-09-13T14:24:48.914Z,4.60
2022-09-13T14:27:24.525Z,4.10
2022-09-13T14:29:54.733Z,4.20
2022-09-13T14:32:25.969Z,4.40
2022-09-13T14:35:01.523Z,3.90
2022-09-13T14:37:32.251Z,3.90
2022-09-13T14:40:04.513Z,4.17
2022-09-13T14:42:43.654Z,3.80
2022-09-13T14:45:15.039Z,4.33
2022-09-13T14:47:52.431Z,3.60
2022-09-13T14:50:26.058Z,3.70
2022-09-13T14:52:57.569Z,4.00
2022-09-13T14:55:29.534Z,3.90
2022-09-13T14:58:03.534Z,4.00
2022-09-13T15:00:34.203Z,4.43
2022-09-13T15:03:13.113Z,4.30
2022-09-13T15:05:42.951Z,3.70
2022-09-13T15:08:45.066Z,3.70
2022-09-13T15:11:27.519Z,3.70
2022-09-13T15:14:18.484Z,3.70
2022-09-13T15:16:51.126Z,3.90
2022-09-13T15:19:38.997Z,4.10
2022-09-13T15:22:19.976Z,3.50
2022-09-13T15:24:51.309Z,3.93
2022-09-13T15:27:23.460Z,4.07
2022-09-13T15:29:56.906Z,4.03
2022-09-13T15:32:31.747Z,4.13
2022-09-13T15:35:01.823Z,4.10
2022-09-13T15:37:34.357Z,4.47
2022-09-13T15:40:23.928Z,4.00
2022-09-13T15:42:53.995Z,4.17
2022-09-13T15:45:23.443Z,4.43
2022-09-13T15:47:53.735Z,4.23
2022-09-13T15:50:26.945Z,3.73
2022-09-13T15:52:57.682Z,4.13
2022-09-13T15:55:27.285Z,4.00
2022-09-13T15:57:56.163Z,3.67
2022-09-13T16:00:27.163Z,4.20
2022-09-13T16:02:55.582Z,4.10
2022-09-13T16:05:23.952Z,4.20
2022-09-13T16:07:54.140Z,4.00
2022-09-13T16:10:24.424Z,4.50
2022-09-13T16:12:52.767Z,4.83
2022-09-13T16:15:20.938Z,5.00
2022-09-13T16:17:49.033Z,4.33
2022-09-13T16:20:18.230Z,4.80
2022-09-13T16:22:46.329Z,4.30
2022-09-13T16:25:15.560Z,4.03
2022-09-13T16:27:45.979Z,3.97
2022-09-13T16:30:16.545Z,4.00
2022-09-13T16:32:44.687Z,4.17
2022-09-13T16:35:13.897Z,4.20
2022-09-13T16:37:43.054Z,3.90
2022-09-13T16:40:12.457Z,4.10
2022-09-13T16:42:40.686Z,3.97
2022-09-13T16:45:11.967Z,4.17
2022-09-13T16:47:41.311Z,3.77
2022-09-13T16:50:11.163Z,4.13
2022-09-13T16:52:39.639Z,3.63
2022-09-13T16:55:09.407Z,4.27
2022-09-13T16:57:37.658Z,4.20
2022-09-13T17:00:09.106Z,4.00
2022-09-13T17:02:39.413Z,4.20
2022-09-13T17:05:08.582Z,3.80
2022-09-13T17:07:37.135Z,4.00
2022-09-13T17:10:07.187Z,3.80
2022-09-13T17:12:35.946Z,3.80
2022-09-13T17:15:04.297Z,3.87
2022-09-13T17:17:36.222Z,4.17
2022-09-13T17:20:10.279Z,4.10
2022-09-13T17:22:38.382Z,3.63
2022-09-13T17:25:07.980Z,3.83
2022-09-13T17:27:36.481Z,3.90
2022-09-13T17:30:05.394Z,4.00
2022-09-13T17:32:33.527Z,3.60
2022-09-13T17:35:01.738Z,4.67
2022-09-13T17:37:31.360Z,3.87
2022-09-13T17:39:59.573Z,3.77
2022-09-13T17:42:28.038Z,6.13
2022-09-13T17:44:56.112Z,5.37
2022-09-13T17:47:24.251Z,4.13
2022-09-13T17:49:52.483Z,3.80
2022-09-13T17:52:20.578Z,4.23
2022-09-13T17:54:50.362Z,4.07
2022-09-13T17:57:18.459Z,4.23
2022-09-13T17:59:47.417Z,3.60
2022-09-13T18:02:15.657Z,3.73
2022-09-13T18:04:43.829Z,3.67
2022-09-13T18:07:12.737Z,4.10
2022-09-13T18:09:41.490Z,3.67
2022-09-13T18:12:11.805Z,4.03
2022-09-13T18:14:40.027Z,3.90
2022-09-13T18:17:13.161Z,4.00
2022-09-13T18:19:46.239Z,3.97
2022-09-13T18:22:14.987Z,3.63
2022-09-13T18:24:43.677Z,4.27
2022-09-13T18:27:13.340Z,3.63
2022-09-13T18:29:41.436Z,3.60
2022-09-13T18:32:09.761Z,3.90
2022-09-13T18:34:38.091Z,3.57
2022-09-13T18:37:06.284Z,3.57
2022-09-13T18:39:34.717Z,3.30
2022-09-13T18:42:03.677Z,3.60
2022-09-13T18:44:34.089Z,3.60
2022-09-13T18:47:04.080Z,3.00
2022-09-13T18:49:35.369Z,3.30
2022-09-13T18:52:03.911Z,3.47
2022-09-13T18:54:33.015Z,3.57
2022-09-13T18:57:01.205Z,4.13
2022-09-13T18:59:32.261Z,3.47
2022-09-13T19:02:01.865Z,3.60
2022-09-13T19:04:30.084Z,3.53
2022-09-13T19:07:03.346Z,3.20
2022-09-13T19:09:31.749Z,3.67
2022-09-13T19:11:59.961Z,3.57
2022-09-13T19:14:29.708Z,4.20
2022-09-13T19:17:01.298Z,3.67
2022-09-13T19:19:32.801Z,3.70
2022-09-13T19:22:00.929Z,3.70
2022-09-13T19:24:29.179Z,3.57
2022-09-13T19:26:57.307Z,3.37
2022-09-13T19:29:26.922Z,3.80
2022-09-13T19:31:56.145Z,3.97
2022-09-13T19:34:24.747Z,3.87
2022-09-13T19:36:58.047Z,3.70
2022-09-13T19:39:29.604Z,3.50
2022-09-13T19:41:58.685Z,3.70
2022-09-13T19:44:26.850Z,3.80
2022-09-13T19:47:29.361Z,3.80
2022-09-13T19:49:43.321Z,3.40
2022-09-13T19:52:12.921Z,3.60
2022-09-13T19:54:41.084Z,3.30
2022-09-13T19:57:10.028Z,3.53
2022-09-13T19:59:38.267Z,3.40
2022-09-13T20:02:07.077Z,3.60
2022-09-13T20:04:35.641Z,3.17
2022-09-13T20:07:04.052Z,3.40
2022-09-13T20:09:33.727Z,3.30
2022-09-13T20:12:01.863Z,3.30
2022-09-13T20:14:30.148Z,3.40
2022-09-13T20:16:59.199Z,3.30
2022-09-13T20:19:41.028Z,3.70
2022-09-13T20:22:10.012Z,3.10
2022-09-13T20:24:39.567Z,3.30
2022-09-13T20:27:08.200Z,4.07
2022-09-13T20:29:36.606Z,3.37
2022-09-13T20:32:05.047Z,3.63
2022-09-13T20:34:35.229Z,3.90
2022-09-13T20:37:03.523Z,3.50
2022-09-13T20:39:31.855Z,4.17
2022-09-13T20:42:01.563Z,3.63
2022-09-13T20:44:29.713Z,3.83
2022-09-13T20:46:57.910Z,3.77
2022-09-13T20:49:26.464Z,3.60
2022-09-13T20:51:54.567Z,3.93
2022-09-13T20:54:22.724Z,4.20
2022-09-13T20:56:50.984Z,3.60
2022-09-13T20:59:21.290Z,3.53
2022-09-13T21:01:49.962Z,3.80
2022-09-13T21:04:18.505Z,3.63
2022-09-13T21:07:00.559Z,3.97
2022-09-13T21:09:28.913Z,3.60
2022-09-13T21:11:57.108Z,3.40
2022-09-13T21:14:26.623Z,3.70
2022-09-13T21:16:55.358Z,3.70
2022-09-13T21:19:23.548Z,3.50
2022-09-13T21:21:51.743Z,3.70
2022-09-13T21:24:20.059Z,3.53
2022-09-13T21:26:48.315Z,3.53
2022-09-13T21:29:16.584Z,3.70
2022-09-13T21:31:46.265Z,3.50
2022-09-13T21:34:16.466Z,4.07
2022-09-13T21:36:45.943Z,3.90
2022-09-13T21:39:15.044Z,3.83
2022-09-13T21:41:43.551Z,3.57
2022-09-13T21:44:12.002Z,3.20
2022-09-13T21:46:41.248Z,3.70
2022-09-13T21:49:12.240Z,3.70
2022-09-13T21:51:42.246Z,3.50
2022-09-13T21:54:12.533Z,3.93
2022-09-13T21:56:42.430Z,3.60
2022-09-13T21:59:14.513Z,3.60
2022-09-13T22:01:46.580Z,3.60
2022-09-13T22:04:18.595Z,3.60
2022-09-13T22:06:48.526Z,4.07
2022-09-13T22:09:17.135Z,3.60
2022-09-13T22:11:47.368Z,3.77
2022-09-13T22:14:17.085Z,3.60
2022-09-13T22:16:46.845Z,3.50
2022-09-13T22:19:18.558Z,3.60
2022-09-13T22:21:48.712Z,3.40
2022-09-13T22:24:18.520Z,3.13
2022-09-13T22:26:47.861Z,3.20
2022-09-13T22:29:16.821Z,3.57
2022-09-13T22:31:47.197Z,3.13
2022-09-13T22:34:18.519Z,3.37
2022-09-13T22:36:46.782Z,3.20
2022-09-13T22:39:17.207Z,3.33
2022-09-13T22:41:46.132Z,3.10
2022-09-13T22:44:15.596Z,3.23
2022-09-13T22:46:45.729Z,3.07
2022-09-13T22:49:15.711Z,3.13
2022-09-13T22:51:46.205Z,3.37
2022-09-13T22:54:15.272Z,3.33
2022-09-13T22:56:43.580Z,3.43
2022-09-13T22:59:17.631Z,3.53
2022-09-13T23:01:46.607Z,3.40
2022-09-13T23:04:15.291Z,3.50
2022-09-13T23:06:48.175Z,3.70
2022-09-13T23:09:19.586Z,3.53
2022-09-13T23:11:48.145Z,3.60
2022-09-13T23:14:20.105Z,3.27
2022-09-13T23:16:51.392Z,3.10
2022-09-13T23:19:21.970Z,3.83
2022-09-13T23:21:54.178Z,3.50
2022-09-13T23:24:24.239Z,3.20
2022-09-13T23:26:55.129Z,3.40
2022-09-13T23:29:23.375Z,3.40
2022-09-13T23:31:52.049Z,3.70
2022-09-13T23:34:20.780Z,3.23
2022-09-13T23:36:48.871Z,3.30
2022-09-13T23:39:20.445Z,3.30
2022-09-13T23:41:50.689Z,2.97
2022-09-13T23:44:19.272Z,3.30
2022-09-13T23:46:47.408Z,3.60
2022-09-13T23:49:15.699Z,3.80
2022-09-13T23:51:43.935Z,3.57
2022-09-13T23:54:13.484Z,4.00
2022-09-13T23:56:43.312Z,3.60
2022-09-13T23:59:12.940Z,3.57
